Time;durP1;ratioP1;P1;durP2;ratioP2;P2;SDS_P1;SDS_P2;PMS_P1;PMS_P2;Temp;Humidity;BMP_temperature;BMP_pressure;BME280_temperature;BME280_humidity;BME280_pressure;Samples;Min_cycle;Max_cycle;Signal;HPM_P1;HPM_P2
2022/01/25 00:08:43;;;;;;;27.30;16.50;;;;;;;4.54;61.05;98066.19;5073337;28;20945;-69
2022/01/25 00:24:53;;;;;;;26.37;15.93;;;;;;;4.46;60.93;98071.88;5072295;28;20416;-71
2022/01/25 00:30:21;;;;;;;26.40;17.60;;;;;;;4.41;61.09;98074.72;5048417;28;20434;-71
2022/01/25 00:32:44;;;;;;;26.80;16.13;;;;;;;4.40;61.24;98069.63;5065053;28;20460;-70
2022/01/25 00:35:10;;;;;;;30.07;17.60;;;;;;;4.40;61.68;98059.25;5071803;28;20504;-71
2022/01/25 00:37:35;;;;;;;26.80;16.80;;;;;;;4.39;61.34;98055.81;5070588;28;20178;-70
2022/01/25 00:40:01;;;;;;;28.10;17.77;;;;;;;4.42;61.08;98055.63;5072784;28;20548;-70
2022/01/25 00:42:27;;;;;;;28.60;17.70;;;;;;;4.39;61.23;98053.22;5040054;28;20198;-71
2022/01/25 00:44:54;;;;;;;30.60;18.67;;;;;;;4.37;61.68;98057.66;5059651;28;20193;-70
2022/01/25 00:47:21;;;;;;;28.10;17.80;;;;;;;4.41;61.48;98059.13;5070965;28;20190;-69
2022/01/25 00:49:51;;;;;;;29.23;17.10;;;;;;;4.41;61.18;98048.75;5070740;28;20475;-70
2022/01/25 00:53:52;;;;;;;27.60;17.30;;;;;;;4.42;61.64;98058.22;5067918;28;20558;-69
2022/01/25 00:55:03;;;;;;;27.60;17.43;;;;;;;4.39;61.32;98054.97;5068281;28;20854;-69
2022/01/25 00:57:30;;;;;;;28.03;17.10;;;;;;;4.30;61.07;98062.41;5073829;28;20445;-69
2022/01/25 00:59:55;;;;;;;26.70;16.90;;;;;;;4.27;61.23;98061.75;5083785;28;20474;-70
2022/01/25 01:02:21;;;;;;;25.77;16.03;;;;;;;4.22;61.94;98061.19;5091057;28;20237;-70
2022/01/25 01:04:47;;;;;;;25.83;16.60;;;;;;;4.19;61.99;98059.59;5076641;28;20633;-70
2022/01/25 01:07:15;;;;;;;28.77;18.37;;;;;;;4.08;61.92;98062.00;5054022;28;20187;-71
2022/01/25 01:09:44;;;;;;;30.53;18.17;;;;;;;4.07;61.87;98070.72;5055052;28;20174;-70
2022/01/25 01:12:16;;;;;;;28.27;19.20;;;;;;;3.95;62.16;98069.66;5054983;28;20832;-70
2022/01/25 01:29:04;;;;;;;28.27;16.13;;;;;;;4.14;61.38;98072.84;5079195;28;20533;-68
2022/01/25 01:31:28;;;;;;;29.87;17.73;;;;;;;4.05;61.52;98088.94;5071168;28;20433;-69
2022/01/25 01:39:34;;;;;;;27.80;17.67;;;;;;;3.96;61.77;98084.31;5075253;28;20440;-72
2022/01/25 01:47:26;;;;;;;29.03;18.23;;;;;;;3.87;61.64;98064.91;5075390;28;20420;-72
2022/01/25 01:49:52;;;;;;;28.70;16.90;;;;;;;3.80;61.81;98059.25;5073867;28;20519;-72
2022/01/25 01:52:18;;;;;;;26.47;16.90;;;;;;;3.78;61.73;98071.47;5047900;28;20477;-72
2022/01/25 01:54:44;;;;;;;30.53;18.53;;;;;;;3.79;61.59;98072.31;5066779;28;20179;-73
2022/01/25 01:57:09;;;;;;;26.43;17.43;;;;;;;3.64;61.72;98071.44;5052843;28;20179;-73
2022/01/25 01:59:35;;;;;;;28.97;17.20;;;;;;;3.51;62.31;98079.06;5050556;28;20206;-73
2022/01/25 02:02:02;;;;;;;29.20;18.10;;;;;;;3.50;62.74;98075.66;5052967;28;20634;-72
2022/01/25 02:04:28;;;;;;;33.73;19.60;;;;;;;3.45;62.73;98075.06;5076316;28;20417;-74
2022/01/25 02:06:54;;;;;;;31.00;19.57;;;;;;;3.55;62.98;98067.59;5058459;28;21199;-73
2022/01/25 02:09:20;;;;;;;35.30;20.70;;;;;;;3.58;62.94;98064.00;5069058;28;20261;-73
2022/01/25 02:11:46;;;;;;;33.43;19.93;;;;;;;3.54;63.15;98061.56;5064556;28;20520;-71
2022/01/25 02:14:14;;;;;;;28.70;18.20;;;;;;;3.53;63.26;98057.31;5074704;28;20467;-74
2022/01/25 02:24:46;;;;;;;32.60;19.63;;;;;;;3.57;62.89;98067.50;5073838;28;20424;-72
2022/01/25 02:27:12;;;;;;;34.37;18.20;;;;;;;3.50;63.09;98065.28;5052528;28;20447;-71
2022/01/25 02:29:37;;;;;;;40.43;19.20;;;;;;;3.48;63.29;98069.72;5046194;28;20413;-73
2022/01/25 02:32:04;;;;;;;31.60;19.60;;;;;;;3.50;63.46;98060.09;5061820;28;20200;-72
2022/01/25 02:34:30;;;;;;;30.03;19.50;;;;;;;3.53;63.41;98061.66;5076385;28;20425;-74
2022/01/25 02:37:00;;;;;;;29.53;19.40;;;;;;;3.49;63.50;98063.59;5062855;28;20906;-73
2022/01/25 02:39:27;;;;;;;30.23;18.73;;;;;;;3.53;63.40;98066.84;5066822;28;20193;-72
2022/01/25 02:41:53;;;;;;;37.30;20.10;;;;;;;3.50;63.63;98073.06;5075520;28;20448;-71
2022/01/25 02:44:24;;;;;;;40.93;18.60;;;;;;;3.50;63.71;98073.06;5075120;28;20424;-72
2022/01/25 02:49:17;;;;;;;35.27;20.37;;;;;;;3.53;63.45;98064.25;5056585;28;20574;-72
2022/01/25 02:51:47;;;;;;;34.77;20.53;;;;;;;3.35;63.93;98059.19;5073398;28;20539;-72
2022/01/25 02:54:14;;;;;;;39.00;21.40;;;;;;;3.45;63.51;98062.09;5052233;28;20455;-72
2022/01/25 02:56:42;;;;;;;34.17;19.67;;;;;;;3.47;63.18;98062.84;5064680;28;20417;-73
2022/01/25 02:59:09;;;;;;;31.20;19.17;;;;;;;3.46;63.29;98066.38;5073763;28;20448;-73
2022/01/25 03:01:35;;;;;;;31.20;19.70;;;;;;;3.46;63.46;98055.19;5072390;28;20501;-71
2022/01/25 03:04:00;;;;;;;36.10;20.50;;;;;;;3.36;63.65;98049.66;5074018;28;20417;-72
2022/01/25 03:06:26;;;;;;;36.87;19.13;;;;;;;3.32;64.07;98053.34;5071868;28;20810;-78
2022/01/25 03:08:52;;;;;;;34.47;20.20;;;;;;;3.34;63.68;98054.91;5075417;28;20637;-72
2022/01/25 03:11:19;;;;;;;41.03;20.30;;;;;;;3.34;63.97;98046.31;5055833;28;20192;-72
2022/01/25 03:13:54;;;;;;;37.27;21.30;;;;;;;3.34;63.77;98036.78;5064107;28;20457;-72
2022/01/25 03:16:31;;;;;;;33.77;20.83;;;;;;;3.33;63.41;98042.06;5073017;28;20452;-72
2022/01/25 03:19:01;;;;;;;35.13;20.40;;;;;;;3.30;63.55;98040.47;5073176;28;20470;-71
2022/01/25 03:23:52;;;;;;;30.07;19.20;;;;;;;3.33;63.62;98024.78;5073569;28;20421;-72
2022/01/25 03:26:19;;;;;;;29.90;18.97;;;;;;;3.28;63.13;98036.28;5064345;28;20487;-72
2022/01/25 03:28:45;;;;;;;30.10;18.47;;;;;;;3.30;63.49;98035.31;5060658;28;20542;-71
2022/01/25 03:31:11;;;;;;;35.60;20.20;;;;;;;3.32;63.76;98040.38;5070314;28;20992;-72
2022/01/25 03:33:37;;;;;;;36.40;20.20;;;;;;;3.31;63.36;98039.56;5066658;28;20460;-71
2022/01/25 03:36:04;;;;;;;33.80;19.87;;;;;;;3.30;63.39;98044.81;5068398;28;20187;-71
2022/01/25 03:38:29;;;;;;;36.70;19.90;;;;;;;3.31;63.40;98042.16;5074908;28;20440;-71
2022/01/25 03:40:55;;;;;;;33.13;20.00;;;;;;;3.32;63.33;98049.00;5078160;28;20421;-72
2022/01/25 03:43:21;;;;;;;36.27;21.13;;;;;;;3.25;63.63;98041.66;5072963;28;20233;-72
2022/01/25 03:46:00;;;;;;;34.13;20.73;;;;;;;3.29;63.32;98046.59;5073481;28;20265;-71
2022/01/25 03:50:52;;;;;;;39.77;21.93;;;;;;;3.27;63.99;98037.22;5073001;28;20477;-71
2022/01/25 03:53:19;;;;;;;35.40;21.20;;;;;;;3.25;63.83;98042.47;5072705;28;20677;-70
2022/01/25 03:55:46;;;;;;;34.23;20.90;;;;;;;2.98;63.93;98039.69;5072414;28;20653;-70
2022/01/25 03:58:12;;;;;;;39.63;23.13;;;;;;;3.03;64.33;98040.25;5054919;28;21083;-71
2022/01/25 04:00:38;;;;;;;33.07;21.00;;;;;;;3.12;63.71;98044.94;5070666;28;20435;-70
2022/01/25 04:05:51;;;;;;;35.30;21.20;;;;;;;3.14;63.20;98048.28;5071593;28;20424;-70
2022/01/25 04:08:17;;;;;;;35.47;20.23;;;;;;;3.15;63.10;98033.56;5070026;28;20424;-71
2022/01/25 04:10:43;;;;;;;36.97;20.50;;;;;;;3.06;63.34;98032.31;5072893;28;20460;-71
2022/01/25 04:13:09;;;;;;;37.50;20.40;;;;;;;3.06;63.41;98029.72;5064465;28;20487;-71
2022/01/25 04:15:38;;;;;;;34.80;20.10;;;;;;;3.07;63.38;98027.06;5071859;28;20182;-71
2022/01/25 04:20:57;;;;;;;35.93;20.67;;;;;;;3.00;63.36;98020.53;5060271;28;20418;-71
2022/01/25 04:26:07;;;;;;;33.03;20.00;;;;;;;2.96;63.13;98010.44;5055096;28;20417;-70
2022/01/25 04:28:32;;;;;;;32.63;19.97;;;;;;;2.99;63.65;98011.09;5074304;28;20447;-70
2022/01/25 04:30:58;;;;;;;32.30;20.00;;;;;;;2.94;63.64;98012.25;5073557;28;20190;-70
2022/01/25 04:33:38;;;;;;;39.20;21.57;;;;;;;2.86;63.89;98004.91;5071874;28;20202;-71
2022/01/25 04:49:56;;;;;;;38.70;22.13;;;;;;;2.72;64.53;97995.31;5068804;28;20495;-70
2022/01/25 04:52:26;;;;;;;44.10;23.57;;;;;;;2.56;65.20;97993.56;5058003;28;20468;-72
2022/01/25 04:55:06;;;;;;;35.10;21.30;;;;;;;2.76;64.83;97992.47;5049837;28;20921;-71
2022/01/25 04:58:11;;;;;;;35.03;21.20;;;;;;;2.86;64.40;97986.78;5062072;28;20942;-71
2022/01/25 05:00:25;;;;;;;37.23;21.37;;;;;;;2.64;64.46;97990.56;5067526;28;20433;-70
2022/01/25 05:02:55;;;;;;;39.57;22.63;;;;;;;2.71;64.63;97996.25;5069056;28;20460;-71
2022/01/25 05:05:33;;;;;;;33.30;19.80;;;;;;;2.75;64.68;97992.56;5067113;28;20472;-70
2022/01/25 05:08:20;;;;;;;38.53;21.83;;;;;;;2.84;64.61;97994.66;5065622;28;20501;-70
2022/01/25 05:11:00;;;;;;;37.67;20.37;;;;;;;2.87;64.22;97997.09;5069398;28;20993;-71
2022/01/25 05:16:36;;;;;;;39.30;22.30;;;;;;;2.94;63.75;98002.75;5002355;28;20435;-70
2022/01/25 05:24:14;;;;;;;37.60;21.77;;;;;;;2.85;63.50;98003.25;4998950;28;20984;-71
2022/01/25 05:26:40;;;;;;;38.60;22.00;;;;;;;2.71;64.20;97997.06;4990774;28;20431;-70
2022/01/25 05:29:06;;;;;;;39.60;22.33;;;;;;;2.66;64.35;97999.09;5000729;28;20197;-70
2022/01/25 05:31:31;;;;;;;38.13;22.23;;;;;;;2.46;65.51;98003.56;4993609;28;20201;-71
2022/01/25 05:33:57;;;;;;;37.67;22.27;;;;;;;2.66;64.83;98006.84;5009563;28;20204;-71
2022/01/25 05:36:23;;;;;;;40.73;22.77;;;;;;;2.74;64.76;98006.44;5009314;28;20400;-70
2022/01/25 05:38:48;;;;;;;40.53;22.60;;;;;;;2.74;64.41;98007.25;5009017;28;20225;-70
2022/01/25 05:41:14;;;;;;;40.27;21.20;;;;;;;2.64;64.44;98011.28;5009743;28;20667;-72
2022/01/25 05:46:20;;;;;;;43.87;24.57;;;;;;;2.10;67.06;98008.94;5009451;28;20514;-71
2022/01/25 05:48:47;;;;;;;41.37;24.07;;;;;;;1.95;67.38;98002.81;5008899;28;21057;-71
2022/01/25 05:51:13;;;;;;;40.63;23.10;;;;;;;2.22;66.79;97999.69;5019969;28;20511;-71
2022/01/25 05:53:42;;;;;;;44.97;25.53;;;;;;;1.94;66.79;98004.53;5064385;28;20473;-71
2022/01/25 05:56:08;;;;;;;43.00;22.93;;;;;;;2.23;66.56;97997.03;5065095;28;20421;-71
2022/01/25 05:58:33;;;;;;;41.67;23.20;;;;;;;2.26;66.05;98002.06;5071466;28;20428;-70
2022/01/25 06:00:59;;;;;;;42.90;22.73;;;;;;;2.50;65.45;97995.63;5070599;28;20432;-71
2022/01/25 06:03:25;;;;;;;45.40;24.00;;;;;;;2.39;65.79;98009.16;5070569;28;20340;-71
2022/01/25 06:05:50;;;;;;;39.50;23.07;;;;;;;2.49;65.77;98002.59;5072872;28;20309;-71
2022/01/25 06:08:16;;;;;;;41.97;23.20;;;;;;;2.63;65.09;98013.94;5074890;28;20273;-71
2022/01/25 06:10:41;;;;;;;44.80;24.97;;;;;;;2.43;65.56;98018.41;5074531;28;20610;-72
2022/01/25 06:13:07;;;;;;;47.03;24.20;;;;;;;2.66;64.61;98019.78;5075254;28;20639;-70
2022/01/25 06:15:33;;;;;;;46.03;24.23;;;;;;;2.71;64.43;98019.53;5075028;28;20235;-70
2022/01/25 06:17:59;;;;;;;43.53;22.67;;;;;;;2.70;64.17;98020.47;5074641;28;20174;-71
2022/01/25 06:20:24;;;;;;;38.40;21.63;;;;;;;2.65;64.63;98018.13;5074530;28;20186;-72
2022/01/25 06:22:50;;;;;;;42.83;24.30;;;;;;;2.75;64.71;98026.22;5074586;28;20190;-71
2022/01/25 06:25:16;;;;;;;38.93;22.83;;;;;;;2.81;64.11;98027.66;5046414;28;20252;-71
2022/01/25 06:27:43;;;;;;;35.47;21.23;;;;;;;2.89;63.78;98034.09;5076740;28;20428;-71
2022/01/25 06:30:16;;;;;;;39.07;22.23;;;;;;;2.90;63.65;98027.13;5073398;28;20541;-70
2022/01/25 06:32:42;;;;;;;36.73;21.73;;;;;;;2.91;63.39;98034.81;5056409;28;20456;-72
2022/01/25 06:35:08;;;;;;;39.73;21.10;;;;;;;2.91;63.11;98032.22;5055835;28;20420;-71
2022/01/25 06:37:35;;;;;;;33.27;20.07;;;;;;;2.89;63.08;98044.44;5075570;28;20420;-72
2022/01/25 06:40:00;;;;;;;40.57;22.13;;;;;;;2.82;63.08;98045.69;5072739;28;20424;-72
2022/01/25 06:42:31;;;;;;;40.50;21.90;;;;;;;2.82;63.35;98048.28;5074329;28;20525;-71
2022/01/25 06:45:02;;;;;;;39.10;21.27;;;;;;;2.80;63.07;98047.50;5074733;28;20183;-70
2022/01/25 06:47:29;;;;;;;35.80;21.50;;;;;;;2.79;62.94;98051.03;5045346;28;20437;-70
2022/01/25 06:49:57;;;;;;;39.37;22.00;;;;;;;2.79;63.11;98056.19;5061679;28;20787;-72
2022/01/25 06:52:23;;;;;;;36.40;21.70;;;;;;;2.79;63.32;98052.78;5069917;28;20477;-72
2022/01/25 06:54:49;;;;;;;34.30;20.60;;;;;;;2.77;63.32;98050.28;5067996;28;20862;-70
2022/01/25 06:57:14;;;;;;;38.20;21.70;;;;;;;2.78;63.21;98059.69;5076626;28;20425;-70
2022/01/25 06:59:40;;;;;;;40.20;23.27;;;;;;;2.79;63.52;98057.97;5079645;28;20187;-72
2022/01/25 07:02:06;;;;;;;49.83;25.73;;;;;;;2.80;63.38;98059.63;5079475;28;20202;-71
2022/01/25 07:04:32;;;;;;;37.73;20.40;;;;;;;2.79;63.35;98061.38;5080809;28;20378;-71
2022/01/25 07:06:57;;;;;;;39.43;21.57;;;;;;;2.75;63.29;98060.72;5070725;28;20429;-71
2022/01/25 07:09:23;;;;;;;38.93;21.97;;;;;;;2.72;63.24;98066.03;5078426;28;20247;-71
2022/01/25 07:11:49;;;;;;;41.03;23.50;;;;;;;2.74;63.17;98068.56;5077305;28;20302;-70
2022/01/25 07:14:14;;;;;;;42.47;22.93;;;;;;;2.80;62.90;98068.22;5061185;28;20203;-70
2022/01/25 07:16:40;;;;;;;46.90;24.90;;;;;;;2.72;63.57;98070.41;5075013;28;20179;-71
2022/01/25 07:19:05;;;;;;;68.13;35.73;;;;;;;2.77;63.10;98068.41;5074681;28;20266;-72
2022/01/25 07:21:31;;;;;;;63.27;33.50;;;;;;;2.76;63.45;98077.09;5075674;28;20190;-70
2022/01/25 07:23:57;;;;;;;60.90;34.10;;;;;;;2.79;63.67;98076.91;5074125;28;20179;-72
2022/01/25 07:26:22;;;;;;;50.63;29.27;;;;;;;2.84;63.10;98076.66;5075807;28;20183;-71
2022/01/25 07:28:48;;;;;;;48.73;28.83;;;;;;;2.84;63.06;98074.91;5087856;28;20237;-70
2022/01/25 07:31:13;;;;;;;45.17;27.13;;;;;;;2.84;63.56;98067.16;5081840;28;20246;-73
2022/01/25 07:33:39;;;;;;;44.20;24.10;;;;;;;2.84;63.35;98076.66;5090096;28;20323;-71
2022/01/25 07:36:05;;;;;;;46.47;24.17;;;;;;;2.89;63.52;98077.25;5071634;28;20179;-70
2022/01/25 07:38:31;;;;;;;41.67;23.97;;;;;;;2.82;63.50;98068.97;5058313;28;20309;-69
2022/01/25 07:40:57;;;;;;;44.97;23.87;;;;;;;2.91;63.38;98073.66;5056458;28;20432;-73
2022/01/25 07:43:23;;;;;;;43.63;24.57;;;;;;;2.93;62.94;98073.59;5074771;28;20440;-71
2022/01/25 07:45:52;;;;;;;44.80;24.97;;;;;;;2.98;62.78;98065.56;5056678;28;20194;-69
2022/01/25 07:48:19;;;;;;;43.53;24.67;;;;;;;2.94;62.85;98071.81;5073968;28;20248;-72
2022/01/25 07:50:45;;;;;;;40.87;22.80;;;;;;;2.98;62.88;98070.75;5072150;28;20429;-70
2022/01/25 07:53:11;;;;;;;44.30;24.20;;;;;;;3.08;63.04;98077.09;5073646;28;20460;-71
2022/01/25 07:55:36;;;;;;;43.73;23.20;;;;;;;3.09;62.90;98068.41;5060722;28;20909;-70
2022/01/25 07:58:03;;;;;;;45.37;23.60;;;;;;;3.17;62.94;98071.41;5053152;28;20179;-70
2022/01/25 08:00:28;;;;;;;47.77;23.30;;;;;;;3.19;62.92;98066.97;5072624;28;20218;-71
2022/01/25 08:02:54;;;;;;;45.70;24.33;;;;;;;3.27;62.51;98081.28;5049412;28;20806;-70
2022/01/25 08:05:21;;;;;;;47.63;23.00;;;;;;;3.29;62.60;98080.28;5058059;28;20197;-70
2022/01/25 08:07:50;;;;;;;53.80;23.57;;;;;;;3.15;62.56;98083.59;5063389;28;20182;-71
2022/01/25 08:10:15;;;;;;;36.40;21.30;;;;;;;3.26;62.42;98079.59;5067113;28;20515;-70
2022/01/25 08:12:41;;;;;;;36.10;21.87;;;;;;;3.32;62.62;98079.25;5059769;28;20548;-72
2022/01/25 08:15:08;;;;;;;42.43;22.80;;;;;;;3.32;62.50;98079.25;5073277;28;20182;-70
2022/01/25 08:17:34;;;;;;;40.33;22.53;;;;;;;3.34;62.02;98077.41;5073510;28;20436;-70
2022/01/25 08:19:59;;;;;;;37.03;22.30;;;;;;;3.48;62.01;98077.47;5063372;28;20452;-71
2022/01/25 08:22:25;;;;;;;38.07;21.60;;;;;;;3.52;62.16;98076.41;5072836;28;20669;-71
2022/01/25 08:24:52;;;;;;;39.87;21.27;;;;;;;3.44;61.75;98075.97;5066628;28;20183;-71
2022/01/25 08:27:20;;;;;;;38.77;21.20;;;;;;;3.62;61.47;98068.09;5070075;28;20429;-72
2022/01/25 08:29:49;;;;;;;37.90;21.43;;;;;;;3.69;61.20;98069.41;5053383;28;20659;-73
2022/01/25 08:32:15;;;;;;;35.47;21.00;;;;;;;3.72;61.64;98071.81;5059097;28;20458;-73
2022/01/25 08:34:41;;;;;;;35.87;20.87;;;;;;;3.80;61.52;98072.22;5067358;28;20433;-74
2022/01/25 08:37:06;;;;;;;34.60;19.70;;;;;;;3.51;61.80;98079.06;5059893;28;20194;-72
2022/01/25 08:39:32;;;;;;;33.67;20.67;;;;;;;3.76;61.60;98073.31;5072592;28;20182;-72
2022/01/25 08:41:58;;;;;;;37.73;20.70;;;;;;;3.89;60.77;98077.81;5050590;28;20203;-71
2022/01/25 08:44:24;;;;;;;38.50;21.80;;;;;;;3.94;60.30;98068.84;5071872;28;20262;-71
2022/01/25 08:46:50;;;;;;;41.63;21.33;;;;;;;4.05;60.38;98060.41;5068517;28;20190;-73
2022/01/25 08:49:16;;;;;;;35.77;19.17;;;;;;;4.22;59.81;98068.97;5067004;28;20448;-72
2022/01/25 08:51:42;;;;;;;29.70;18.33;;;;;;;4.33;60.21;98069.16;5067170;28;20437;-73
2022/01/25 08:54:08;;;;;;;34.87;19.10;;;;;;;4.50;60.32;98075.09;5058635;28;20259;-73
2022/01/25 08:56:34;;;;;;;36.67;20.80;;;;;;;4.34;59.99;98077.78;5059113;28;20421;-71
2022/01/25 08:59:03;;;;;;;33.00;19.93;;;;;;;4.23;60.04;98070.63;5083089;28;20238;-72
2022/01/25 09:01:28;;;;;;;32.97;19.27;;;;;;;4.49;60.10;98076.84;5070723;28;20429;-73
2022/01/25 09:03:54;;;;;;;33.80;18.90;;;;;;;4.75;59.65;98071.81;5028569;28;20466;-72
2022/01/25 09:06:20;;;;;;;34.20;19.77;;;;;;;4.93;58.52;98069.84;5053291;28;20191;-73
2022/01/25 09:08:47;;;;;;;33.50;19.27;;;;;;;5.10;58.54;98060.19;5057942;28;20473;-72
2022/01/25 09:11:12;;;;;;;34.70;19.30;;;;;;;5.02;57.62;98061.50;5053383;28;20187;-72
2022/01/25 09:13:39;;;;;;;33.93;19.50;;;;;;;4.55;58.39;98067.84;5056509;28;20471;-72
2022/01/25 09:16:07;;;;;;;35.20;20.00;;;;;;;4.66;58.16;98073.25;5070031;28;20261;-71
2022/01/25 09:18:32;;;;;;;40.27;20.40;;;;;;;4.72;58.26;98066.84;5053473;28;20417;-73
2022/01/25 09:20:58;;;;;;;37.27;18.77;;;;;;;4.86;57.20;98068.59;5059563;28;20414;-71
2022/01/25 09:23:25;;;;;;;30.00;17.03;;;;;;;5.04;57.13;98067.41;5071167;28;20194;-72
2022/01/25 09:25:51;;;;;;;78.77;25.03;;;;;;;4.87;57.16;98075.44;5065007;28;20227;-71
2022/01/25 09:28:17;;;;;;;30.07;17.90;;;;;;;5.04;56.71;98077.00;5073038;28;20570;-71
2022/01/25 09:30:43;;;;;;;27.90;16.37;;;;;;;5.45;56.22;98080.47;5067378;28;20983;-71
2022/01/25 09:33:09;;;;;;;68.17;22.80;;;;;;;5.48;55.49;98069.91;5050192;28;20607;-73
2022/01/25 09:35:35;;;;;;;27.70;15.83;;;;;;;5.58;55.63;98064.94;5055161;28;20461;-72
2022/01/25 09:38:01;;;;;;;25.07;16.07;;;;;;;5.05;56.01;98069.09;5065466;28;20194;-72
2022/01/25 09:40:28;;;;;;;32.50;18.17;;;;;;;5.13;56.56;98071.19;5065007;28;20428;-72
2022/01/25 09:42:56;;;;;;;34.70;17.77;;;;;;;5.37;55.77;98071.44;5072352;28;20278;-73
2022/01/25 09:45:23;;;;;;;27.53;16.20;;;;;;;5.73;55.49;98057.91;5082482;28;20417;-71
2022/01/25 09:47:50;;;;;;;24.93;16.60;;;;;;;6.01;54.28;98061.31;5073397;28;20928;-71
2022/01/25 09:50:17;;;;;;;28.13;18.10;;;;;;;6.23;54.16;98051.13;5052584;28;20956;-73
2022/01/25 09:52:43;;;;;;;37.23;18.67;;;;;;;6.12;53.25;98053.59;5066590;28;20461;-73
2022/01/25 09:55:12;;;;;;;27.67;16.07;;;;;;;6.26;53.83;98056.13;5072623;28;20425;-73
2022/01/25 09:57:37;;;;;;;27.40;16.43;;;;;;;5.87;54.36;98055.22;5063900;28;20421;-73
2022/01/25 10:00:07;;;;;;;35.30;17.17;;;;;;;6.10;53.82;98055.47;5070439;28;20428;-71
2022/01/25 10:02:43;;;;;;;24.67;15.67;;;;;;;6.51;52.21;98049.22;5072015;28;20241;-71
2022/01/25 10:05:28;;;;;;;22.83;14.90;;;;;;;6.65;52.25;98052.66;5072420;28;20991;-74
2022/01/25 10:07:59;;;;;;;24.13;14.73;;;;;;;6.93;51.76;98050.72;5063502;28;20758;-72
2022/01/25 10:10:27;;;;;;;27.23;16.47;;;;;;;6.98;51.92;98048.59;5054165;28;20913;-72
2022/01/25 10:12:55;;;;;;;27.00;14.97;;;;;;;7.00;51.18;98051.94;5063895;28;21074;-71
2022/01/25 10:15:20;;;;;;;22.40;14.53;;;;;;;7.09;51.54;98051.28;5071876;28;20436;-71
2022/01/25 10:17:46;;;;;;;25.60;16.07;;;;;;;6.39;52.00;98055.28;5070962;28;20428;-72
2022/01/25 10:20:26;;;;;;;33.30;16.30;;;;;;;6.89;51.49;98050.09;5070005;28;20194;-72
2022/01/25 10:22:51;;;;;;;24.50;15.43;;;;;;;7.03;51.08;98046.50;5070691;28;20229;-71
2022/01/25 10:25:33;;;;;;;25.50;15.87;;;;;;;6.98;51.52;98049.44;5064038;28;20925;-71
2022/01/25 10:28:03;;;;;;;27.00;15.20;;;;;;;7.12;50.75;98048.47;5038681;28;20183;-70
2022/01/25 10:30:41;;;;;;;28.57;15.20;;;;;;;7.34;51.08;98057.34;5069477;28;20485;-71
2022/01/25 10:33:32;;;;;;;27.23;16.60;;;;;;;7.17;51.76;98048.97;5050780;28;20828;-72
2022/01/25 10:36:01;;;;;;;28.07;18.20;;;;;;;6.99;52.72;98051.13;5043354;28;20552;-72
2022/01/25 10:38:30;;;;;;;31.20;18.07;;;;;;;6.73;53.25;98059.00;5062531;28;20432;-71
2022/01/25 10:41:07;;;;;;;27.00;17.57;;;;;;;7.25;52.31;98063.22;5067601;28;20543;-71
2022/01/25 10:43:34;;;;;;;28.47;18.20;;;;;;;7.43;52.74;98055.84;5051506;28;20528;-72
2022/01/25 10:46:27;;;;;;;30.37;18.50;;;;;;;7.33;51.91;98048.69;5049595;28;20425;-72
2022/01/25 10:48:57;;;;;;;33.73;18.77;;;;;;;7.39;51.48;98052.63;5054824;28;20520;-71
2022/01/25 10:51:39;;;;;;;30.27;19.30;;;;;;;7.26;51.54;98049.25;5072726;28;21054;-72
2022/01/25 10:54:07;;;;;;;33.23;18.93;;;;;;;7.16;51.99;98046.47;5074732;28;20539;-72
2022/01/25 10:56:35;;;;;;;29.47;18.10;;;;;;;7.49;51.74;98040.56;5075123;28;20528;-72
2022/01/25 10:59:04;;;;;;;25.83;17.57;;;;;;;7.59;51.22;98042.50;5073818;28;20934;-72
2022/01/25 11:01:39;;;;;;;32.90;18.50;;;;;;;7.59;51.43;98039.91;5047312;28;20511;-72
2022/01/25 11:04:12;;;;;;;30.50;18.77;;;;;;;7.36;52.09;98045.03;5074967;28;20427;-73
2022/01/25 11:06:38;;;;;;;33.40;19.10;;;;;;;7.64;51.17;98041.22;5048466;28;20429;-71
2022/01/25 11:09:06;;;;;;;31.47;20.10;;;;;;;7.59;51.30;98035.53;5057532;28;20416;-73
2022/01/25 11:11:41;;;;;;;34.63;22.33;;;;;;;7.34;51.45;98046.91;5069161;28;20183;-75
2022/01/25 11:16:53;;;;;;;37.07;22.20;;;;;;;7.48;51.71;98046.75;5074561;28;20424;-72
2022/01/25 11:19:20;;;;;;;38.70;24.10;;;;;;;7.45;52.37;98028.69;5074010;28;20481;-72
2022/01/25 11:21:46;;;;;;;35.77;23.30;;;;;;;7.74;51.28;98028.31;5058235;28;20922;-71
2022/01/25 11:24:13;;;;;;;38.67;23.80;;;;;;;7.89;50.27;98036.78;5074668;28;20930;-73
2022/01/25 11:26:43;;;;;;;38.90;25.17;;;;;;;7.70;51.10;98037.31;5071090;28;20431;-74
2022/01/25 11:29:09;;;;;;;52.33;27.40;;;;;;;7.46;52.42;98030.38;5076975;28;20420;-71
2022/01/25 11:31:38;;;;;;;42.83;23.73;;;;;;;7.41;53.04;98035.09;5074718;28;20432;-74
2022/01/25 11:34:08;;;;;;;40.37;25.37;;;;;;;7.25;53.34;98031.94;5070622;28;20460;-72
2022/01/25 11:36:44;;;;;;;47.03;25.20;;;;;;;7.41;53.12;98021.22;5048040;28;20524;-73
2022/01/25 11:39:10;;;;;;;41.63;24.47;;;;;;;7.38;52.87;98024.88;5065115;28;20425;-73
2022/01/25 11:41:35;;;;;;;46.53;25.03;;;;;;;7.31;53.06;98026.28;5074594;28;20767;-72
2022/01/25 11:44:14;;;;;;;38.43;24.83;;;;;;;7.45;53.07;98025.28;5060754;28;20428;-71
2022/01/25 11:46:42;;;;;;;43.00;25.50;;;;;;;7.21;53.62;98013.06;5073867;28;20420;-72
2022/01/25 11:49:18;;;;;;;39.23;23.37;;;;;;;7.66;53.21;98015.03;5063762;28;20429;-73
2022/01/25 11:51:44;;;;;;;40.57;24.97;;;;;;;7.39;54.79;98021.34;5072856;28;20424;-71
2022/01/25 11:54:10;;;;;;;43.10;25.40;;;;;;;6.46;55.65;98022.66;5075827;28;20460;-72
2022/01/25 11:56:37;;;;;;;39.73;25.80;;;;;;;7.15;55.13;98027.38;5074694;28;20431;-72
2022/01/25 11:59:05;;;;;;;38.53;26.90;;;;;;;6.47;55.26;98026.94;5056310;28;20182;-72
2022/01/25 12:01:32;;;;;;;44.70;26.70;;;;;;;7.29;54.69;98034.19;5064224;28;20752;-74
2022/01/25 12:04:04;;;;;;;44.00;25.80;;;;;;;6.95;54.84;98030.56;5072271;28;21046;-73
2022/01/25 12:06:34;;;;;;;35.47;24.83;;;;;;;7.11;55.13;98031.16;5049877;28;20421;-73
2022/01/25 12:11:57;;;;;;;39.40;25.40;;;;;;;6.84;55.92;98029.56;5057454;28;21255;-74
2022/01/25 12:14:33;;;;;;;39.23;25.07;;;;;;;7.77;53.04;98028.09;5073982;28;20467;-73
2022/01/25 12:17:01;;;;;;;38.80;26.30;;;;;;;7.89;52.54;98009.88;5056123;28;20425;-72
2022/01/25 12:19:30;;;;;;;37.70;25.80;;;;;;;7.72;53.92;98019.78;5059491;28;20421;-72
2022/01/25 12:22:03;;;;;;;42.37;26.33;;;;;;;7.53;53.43;98020.31;5048307;28;20471;-73
2022/01/25 12:24:36;;;;;;;51.37;27.87;;;;;;;7.86;53.02;98020.53;5069883;28;20964;-74
2022/01/25 12:27:17;;;;;;;49.40;27.03;;;;;;;7.91;53.00;98018.41;5062215;28;20504;-72
2022/01/25 12:29:45;;;;;;;44.83;26.90;;;;;;;7.74;53.87;98010.06;5064423;28;20423;-72
2022/01/25 12:32:19;;;;;;;46.70;26.17;;;;;;;7.99;53.50;98011.69;5071124;28;20487;-72
2022/01/25 12:35:04;;;;;;;47.30;28.57;;;;;;;7.35;56.02;98012.91;5064131;28;20421;-72
2022/01/25 12:37:42;;;;;;;50.37;26.57;;;;;;;7.52;54.58;98011.66;5052174;28;20421;-72
2022/01/25 12:40:29;;;;;;;47.90;28.93;;;;;;;7.72;54.77;98013.75;5063634;28;20424;-73
2022/01/25 12:42:56;;;;;;;50.00;27.60;;;;;;;7.75;54.29;98013.53;5071404;28;20812;-72
2022/01/25 12:45:24;;;;;;;48.40;29.03;;;;;;;7.32;56.10;98020.09;5072380;28;20452;-72
2022/01/25 12:47:58;;;;;;;44.57;29.40;;;;;;;7.73;54.35;98011.00;5072205;28;20432;-72
2022/01/25 12:50:24;;;;;;;51.57;28.23;;;;;;;8.33;53.40;98000.41;5071307;28;20918;-72
2022/01/25 12:52:50;;;;;;;47.90;31.30;;;;;;;7.91;54.07;98000.97;5072498;28;20461;-73
2022/01/25 12:55:22;;;;;;;47.07;29.20;;;;;;;8.33;52.72;98002.19;5057350;28;20434;-72
2022/01/25 12:57:50;;;;;;;46.20;29.87;;;;;;;8.06;54.19;98004.22;5072762;28;20428;-71
2022/01/25 13:00:16;;;;;;;47.20;29.80;;;;;;;8.63;53.29;98004.22;5063531;28;20429;-72
2022/01/25 13:02:42;;;;;;;49.77;31.13;;;;;;;8.89;52.04;97998.72;5078100;28;20504;-72
2022/01/25 13:05:19;;;;;;;50.50;29.80;;;;;;;8.84;52.07;97990.41;5080536;28;20435;-72
2022/01/25 13:07:45;;;;;;;52.33;31.43;;;;;;;9.07;50.52;97996.44;5082214;28;20241;-73
2022/01/25 13:10:25;;;;;;;44.87;29.10;;;;;;;8.80;51.99;98002.09;5073355;28;20520;-72
2022/01/25 13:12:57;;;;;;;47.80;29.50;;;;;;;9.78;50.07;97995.06;5072650;28;20467;-72